createdAt,value
2022-07-27T00:01:05.740Z,1014.8
2022-07-27T00:02:00.654Z,1014.82
2022-07-27T00:03:00.325Z,1014.87
2022-07-27T00:03:59.981Z,1014.89
2022-07-27T00:04:59.643Z,1014.86
2022-07-27T00:06:09.226Z,1014.88
2022-07-27T00:07:01.297Z,1014.84
2022-07-27T00:08:01.210Z,1014.85
2022-07-27T00:09:01.024Z,1014.88
2022-07-27T00:10:01.080Z,1014.84
2022-07-27T00:11:12.698Z,1014.88
2022-07-27T00:12:01.021Z,1014.9
2022-07-27T00:13:00.720Z,1014.88
2022-07-27T00:14:00.815Z,1014.85
2022-07-27T00:15:01.259Z,1014.83
2022-07-27T00:16:00.993Z,1014.82
2022-07-27T00:17:00.663Z,1014.81
2022-07-27T00:18:00.352Z,1014.74
2022-07-27T00:19:00.125Z,1014.79
2022-07-27T00:19:59.778Z,1014.81
2022-07-27T00:21:02.324Z,1014.79
2022-07-27T00:22:00.828Z,1014.83
2022-07-27T00:23:00.456Z,1014.8
2022-07-27T00:24:00.194Z,1014.79
2022-07-27T00:24:59.868Z,1014.79
2022-07-27T00:25:59.569Z,1014.83
2022-07-27T00:27:01.319Z,1014.81
2022-07-27T00:28:01.367Z,1014.86
2022-07-27T00:29:00.987Z,1014.9
2022-07-27T00:30:00.678Z,1014.9
2022-07-27T00:31:00.605Z,1014.96
2022-07-27T00:32:00.337Z,1014.9
2022-07-27T00:33:00.042Z,1014.91
2022-07-27T00:33:59.754Z,1014.93
2022-07-27T00:35:02.412Z,1014.92
2022-07-27T00:36:02.421Z,1014.88
2022-07-27T00:37:01.298Z,1014.92
2022-07-27T00:38:00.946Z,1014.93
2022-07-27T00:39:01.118Z,1014.99
2022-07-27T00:40:00.614Z,1015.01
2022-07-27T00:41:00.329Z,1015.01
2022-07-27T00:41:59.998Z,1014.99
2022-07-27T00:42:59.638Z,1015.04
2022-07-27T00:44:02.419Z,1015.08
2022-07-27T00:45:03.191Z,1015.12
2022-07-27T00:46:04.504Z,1015.08
2022-07-27T00:47:02.127Z,1015.12
2022-07-27T00:48:00.861Z,1015.08
2022-07-27T00:49:00.767Z,1015.11
2022-07-27T00:50:00.763Z,1015.09
2022-07-27T00:51:00.530Z,1015.12
2022-07-27T00:52:00.294Z,1015.1
2022-07-27T00:53:00.070Z,1015.16
2022-07-27T00:54:00.789Z,1015.13
2022-07-27T00:55:00.604Z,1015.11
2022-07-27T00:56:00.298Z,1015.13
2022-07-27T00:56:59.966Z,1015.15
2022-07-27T00:57:59.819Z,1015.15
2022-07-27T00:59:02.334Z,1015.16
2022-07-27T01:00:02.266Z,1015.13
2022-07-27T01:01:01.071Z,1015.18
2022-07-27T01:02:02.105Z,1015.19
2022-07-27T01:03:02.618Z,1015.21
2022-07-27T01:04:01.274Z,1015.24
2022-07-27T01:05:01.019Z,1015.23
2022-07-27T01:06:01.866Z,1015.31
2022-07-27T01:07:02.345Z,1015.26
2022-07-27T01:08:01.388Z,1015.25
2022-07-27T01:09:01.065Z,1015.24
2022-07-27T01:10:00.702Z,1015.21
2022-07-27T01:11:00.807Z,1015.2
2022-07-27T01:12:00.746Z,1015.23
2022-07-27T01:13:00.554Z,1015.22
2022-07-27T01:14:00.380Z,1015.22
2022-07-27T01:15:00.241Z,1015.25
2022-07-27T01:16:00.133Z,1015.26
2022-07-27T01:16:59.921Z,1015.22
2022-07-27T01:17:59.830Z,1015.24
2022-07-27T01:19:02.528Z,1015.16
2022-07-27T01:20:02.717Z,1015.17
2022-07-27T01:21:01.360Z,1015.2
2022-07-27T01:22:01.080Z,1015.21
2022-07-27T01:23:00.890Z,1015.22
2022-07-27T01:24:00.575Z,1015.26
2022-07-27T01:25:00.267Z,1015.25
2022-07-27T01:25:59.920Z,1015.25
2022-07-27T01:27:00.011Z,1015.31
2022-07-27T01:27:59.780Z,1015.3
2022-07-27T01:29:01.720Z,1015.32
2022-07-27T01:30:00.686Z,1015.31
2022-07-27T01:31:00.397Z,1015.29
2022-07-27T01:32:00.234Z,1015.26
2022-07-27T01:33:00.273Z,1015.28
2022-07-27T01:33:59.925Z,1015.34
2022-07-27T01:34:59.595Z,1015.31
2022-07-27T01:36:01.260Z,1015.29
2022-07-27T01:37:02.388Z,1015.33
2022-07-27T01:38:01.173Z,1015.31
2022-07-27T01:39:00.884Z,1015.36
2022-07-27T01:40:00.840Z,1015.41
2022-07-27T01:41:01.211Z,1015.39
2022-07-27T01:42:00.894Z,1015.34
2022-07-27T01:43:00.592Z,1015.37
2022-07-27T01:44:00.339Z,1015.36
2022-07-27T01:45:00.970Z,1015.36
2022-07-27T01:46:00.749Z,1015.39
2022-07-27T01:47:00.524Z,1015.39
2022-07-27T01:48:00.273Z,1015.41
2022-07-27T01:49:00.023Z,1015.41
2022-07-27T01:49:59.841Z,1015.37
2022-07-27T01:51:02.252Z,1015.38
2022-07-27T01:52:00.543Z,1015.37
2022-07-27T01:53:00.311Z,1015.39
2022-07-27T01:53:59.945Z,1015.38
2022-07-27T01:54:59.655Z,1015.38
2022-07-27T01:56:01.972Z,1015.36
2022-07-27T01:57:02.156Z,1015.4
2022-07-27T01:58:00.706Z,1015.39
2022-07-27T01:59:00.483Z,1015.39
2022-07-27T02:00:00.812Z,1015.43
2022-07-27T02:01:00.473Z,1015.43
2022-07-27T02:02:00.313Z,1015.45
2022-07-27T02:03:00.038Z,1015.43
2022-07-27T02:04:00.646Z,1015.42
2022-07-27T02:05:00.524Z,1015.45
2022-07-27T02:06:00.250Z,1015.45
2022-07-27T02:06:59.931Z,1015.41
2022-07-27T02:07:59.927Z,1015.42
2022-07-27T02:08:59.607Z,1015.44
2022-07-27T02:10:02.329Z,1015.49
2022-07-27T02:11:02.797Z,1015.48
2022-07-27T02:12:03.036Z,1015.5
2022-07-27T02:13:02.354Z,1015.51
2022-07-27T02:14:01.021Z,1015.49
2022-07-27T02:15:05.837Z,1015.53
2022-07-27T02:16:01.195Z,1015.46
2022-07-27T02:17:01.855Z,1015.5
2022-07-27T02:18:01.233Z,1015.44
2022-07-27T02:19:04.787Z,1015.45
2022-07-27T02:20:00.970Z,1015.42
2022-07-27T02:21:01.162Z,1015.41
2022-07-27T02:22:04.394Z,1015.43
2022-07-27T02:23:00.819Z,1015.42
2022-07-27T02:24:00.835Z,1015.42
2022-07-27T02:25:00.569Z,1015.43
2022-07-27T02:26:00.257Z,1015.4
2022-07-27T02:27:03.035Z,1015.39
2022-07-27T02:28:00.997Z,1015.39
2022-07-27T02:29:00.699Z,1015.41
2022-07-27T02:30:01.417Z,1015.36
2022-07-27T02:31:01.114Z,1015.36
2022-07-27T02:32:12.074Z,1015.34
2022-07-27T02:33:00.809Z,1015.32
2022-07-27T02:34:00.527Z,1015.35
2022-07-27T02:35:00.197Z,1015.37
2022-07-27T02:36:01.330Z,1015.35
2022-07-27T02:37:15.953Z,1015.38
2022-07-27T02:38:00.853Z,1015.35
2022-07-27T02:39:00.570Z,1015.36
2022-07-27T02:40:00.264Z,1015.4
2022-07-27T02:41:00.239Z,1015.45
2022-07-27T02:42:00.253Z,1015.47
2022-07-27T02:42:59.966Z,1015.52
2022-07-27T02:43:59.674Z,1015.45
2022-07-27T02:45:01.525Z,1015.47
2022-07-27T02:46:00.806Z,1015.43
2022-07-27T02:47:00.506Z,1015.44
2022-07-27T02:48:00.220Z,1015.44
2022-07-27T02:48:59.988Z,1015.44
2022-07-27T02:49:59.879Z,1015.5
2022-07-27T02:51:00.771Z,1015.48
2022-07-27T02:52:00.442Z,1015.45
2022-07-27T02:53:00.153Z,1015.48
2022-07-27T02:53:59.946Z,1015.44
2022-07-27T02:55:00.356Z,1015.48
2022-07-27T02:56:00.049Z,1015.5
2022-07-27T02:56:59.707Z,1015.46
2022-07-27T02:58:02.940Z,1015.45
2022-07-27T02:59:02.020Z,1015.46
2022-07-27T03:00:00.697Z,1015.49
2022-07-27T03:01:00.396Z,1015.49
2022-07-27T03:02:00.224Z,1015.49
2022-07-27T03:03:00.236Z,1015.5
2022-07-27T03:04:00.183Z,1015.47
2022-07-27T03:04:59.913Z,1015.48
2022-07-27T03:05:59.607Z,1015.46
2022-07-27T03:07:01.369Z,1015.46
2022-07-27T03:08:01.057Z,1015.4
2022-07-27T03:09:00.763Z,1015.44
2022-07-27T03:10:00.409Z,1015.43
2022-07-27T03:11:00.153Z,1015.4
2022-07-27T03:11:59.809Z,1015.43
2022-07-27T03:13:03.127Z,1015.43
2022-07-27T03:14:01.923Z,1015.37
2022-07-27T03:15:00.782Z,1015.4
2022-07-27T03:16:00.552Z,1015.42
2022-07-27T03:17:01.359Z,1015.4
2022-07-27T03:18:00.996Z,1015.45
2022-07-27T03:19:00.645Z,1015.46
2022-07-27T03:20:00.322Z,1015.45
2022-07-27T03:21:00.023Z,1015.42
2022-07-27T03:21:59.973Z,1015.43
2022-07-27T03:22:59.637Z,1015.42
2022-07-27T03:24:01.374Z,1015.47
2022-07-27T03:25:01.038Z,1015.5
2022-07-27T03:26:00.787Z,1015.51
2022-07-27T03:27:00.465Z,1015.49
2022-07-27T03:28:04.163Z,1015.51
2022-07-27T03:29:01.153Z,1015.51
2022-07-27T03:30:00.914Z,1015.52
2022-07-27T03:31:01.016Z,1015.54
2022-07-27T03:32:00.705Z,1015.53
2022-07-27T03:33:00.414Z,1015.52
2022-07-27T03:34:01.931Z,1015.53
2022-07-27T03:35:01.160Z,1015.56
2022-07-27T03:36:00.832Z,1015.57
2022-07-27T03:37:00.497Z,1015.55
2022-07-27T03:38:00.674Z,1015.57
2022-07-27T03:39:05.712Z,1015.56
2022-07-27T03:40:01.368Z,1015.59
2022-07-27T03:41:00.756Z,1015.62
2022-07-27T03:42:00.472Z,1015.62
2022-07-27T03:43:00.738Z,1015.64
2022-07-27T03:44:00.499Z,1015.67
2022-07-27T03:45:00.144Z,1015.65
2022-07-27T03:46:00.063Z,1015.65
2022-07-27T03:46:59.770Z,1015.64
2022-07-27T03:48:02.294Z,1015.58
2022-07-27T03:49:02.589Z,1015.65
2022-07-27T03:50:00.821Z,1015.66
2022-07-27T03:51:00.883Z,1015.64
2022-07-27T03:52:00.630Z,1015.67
2022-07-27T03:53:02.460Z,1015.64
2022-07-27T03:54:00.568Z,1015.7
2022-07-27T03:55:00.243Z,1015.71
2022-07-27T03:56:00.460Z,1015.75
2022-07-27T03:57:00.775Z,1015.75
2022-07-27T03:58:04.171Z,1015.72
2022-07-27T03:59:02.814Z,1015.73
2022-07-27T04:00:01.410Z,1015.72
2022-07-27T04:01:01.383Z,1015.68
2022-07-27T04:02:01.209Z,1015.65
2022-07-27T04:03:04.603Z,1015.68
2022-07-27T04:04:01.026Z,1015.7
2022-07-27T04:05:00.713Z,1015.7
2022-07-27T04:06:00.376Z,1015.68
2022-07-27T04:07:00.031Z,1015.65
2022-07-27T04:08:09.510Z,1015.67
2022-07-27T04:09:13.758Z,1015.67
2022-07-27T04:10:01.057Z,1015.66
2022-07-27T04:11:00.994Z,1015.61
2022-07-27T04:12:01.570Z,1015.66
2022-07-27T04:13:11.842Z,1015.59
2022-07-27T04:14:00.898Z,1015.59
2022-07-27T04:15:00.606Z,1015.57
2022-07-27T04:16:00.260Z,1015.59
2022-07-27T04:17:00.509Z,1015.57
2022-07-27T04:18:15.666Z,1015.6
2022-07-27T04:19:02.597Z,1015.58
2022-07-27T04:20:01.441Z,1015.59
2022-07-27T04:21:01.254Z,1015.62
2022-07-27T04:22:00.950Z,1015.59
2022-07-27T04:23:15.944Z,1015.63
2022-07-27T04:24:00.615Z,1015.65
2022-07-27T04:25:00.349Z,1015.63
2022-07-27T04:26:00.082Z,1015.63
2022-07-27T04:26:59.738Z,1015.69
2022-07-27T04:28:15.929Z,1015.67
2022-07-27T04:29:01.502Z,1015.66
2022-07-27T04:30:00.685Z,1015.6
2022-07-27T04:31:00.908Z,1015.65
2022-07-27T04:32:00.695Z,1015.59
2022-07-27T04:33:00.383Z,1015.55
2022-07-27T04:34:00.086Z,1015.53
2022-07-27T04:34:59.791Z,1015.56
2022-07-27T04:36:02.520Z,1015.59
2022-07-27T04:37:01.094Z,1015.54
2022-07-27T04:38:00.826Z,1015.63
2022-07-27T04:39:00.551Z,1015.65
2022-07-27T04:40:00.244Z,1015.64
2022-07-27T04:41:00.029Z,1015.64
2022-07-27T04:41:59.689Z,1015.6
2022-07-27T04:43:02.609Z,1015.63
2022-07-27T04:44:02.342Z,1015.64
2022-07-27T04:45:01.413Z,1015.73
2022-07-27T04:46:01.132Z,1015.81
2022-07-27T04:47:01.000Z,1015.83
2022-07-27T04:48:00.688Z,1015.86
2022-07-27T04:49:00.467Z,1015.83
2022-07-27T04:50:00.145Z,1015.76
2022-07-27T04:51:00.537Z,1015.74
2022-07-27T04:52:00.309Z,1015.75
2022-07-27T04:53:00.019Z,1015.74
2022-07-27T04:54:00.032Z,1015.79
2022-07-27T04:55:00.699Z,1015.79
2022-07-27T04:56:00.752Z,1015.82
2022-07-27T04:57:00.447Z,1015.8
2022-07-27T04:58:00.145Z,1015.81
2022-07-27T04:58:59.902Z,1015.85
2022-07-27T04:59:59.667Z,1015.83
2022-07-27T05:01:01.533Z,1015.78
2022-07-27T05:02:01.281Z,1015.83
2022-07-27T05:03:00.995Z,1015.79
2022-07-27T05:04:00.810Z,1015.79
2022-07-27T05:05:00.556Z,1015.81
2022-07-27T05:06:00.244Z,1015.82
2022-07-27T05:06:59.911Z,1015.87
2022-07-27T05:08:00.809Z,1015.81
2022-07-27T05:09:00.820Z,1015.83
2022-07-27T05:10:00.858Z,1015.88
2022-07-27T05:11:00.531Z,1015.87
2022-07-27T05:12:00.239Z,1015.93
2022-07-27T05:13:00.781Z,1015.96
2022-07-27T05:14:01.166Z,1016.03
2022-07-27T05:15:00.918Z,1016.05
2022-07-27T05:16:00.675Z,1016.07
2022-07-27T05:17:01.725Z,1016.03
2022-07-27T05:18:00.596Z,1016.03
2022-07-27T05:19:00.298Z,1016.02
2022-07-27T05:20:00.240Z,1016.07
2022-07-27T05:20:59.947Z,1016.1
2022-07-27T05:21:59.591Z,1016.17
2022-07-27T05:23:03.255Z,1016.17
2022-07-27T05:24:01.283Z,1016.22
2022-07-27T05:25:01.741Z,1016.25
2022-07-27T05:26:02.291Z,1016.25
2022-07-27T05:27:02.790Z,1016.24
2022-07-27T05:28:00.979Z,1016.27
2022-07-27T05:29:01.761Z,1016.32
2022-07-27T05:30:01.405Z,1016.34
2022-07-27T05:31:01.064Z,1016.38
2022-07-27T05:32:00.847Z,1016.41
2022-07-27T05:33:00.575Z,1016.38
2022-07-27T05:34:01.127Z,1016.38
2022-07-27T05:35:00.753Z,1016.41
2022-07-27T05:36:00.493Z,1016.39
2022-07-27T05:37:00.709Z,1016.42
2022-07-27T05:38:00.412Z,1016.46
2022-07-27T05:39:00.233Z,1016.44
2022-07-27T05:40:00.032Z,1016.42
2022-07-27T05:40:59.933Z,1016.41
2022-07-27T05:41:59.622Z,1016.43
2022-07-27T05:43:02.804Z,1016.42
2022-07-27T05:44:02.718Z,1016.44
2022-07-27T05:45:02.327Z,1016.47
2022-07-27T05:46:00.945Z,1016.5
2022-07-27T05:47:00.718Z,1016.47
2022-07-27T05:48:00.480Z,1016.47
2022-07-27T05:49:00.317Z,1016.48
2022-07-27T05:50:00.288Z,1016.56
2022-07-27T05:51:00.033Z,1016.57
2022-07-27T05:52:00.883Z,1016.55
2022-07-27T05:53:00.762Z,1016.62
2022-07-27T05:54:00.659Z,1016.64
2022-07-27T05:55:00.390Z,1016.64
2022-07-27T05:56:00.119Z,1016.65
2022-07-27T05:57:02.986Z,1016.61
2022-07-27T05:58:01.088Z,1016.63
2022-07-27T05:59:05.019Z,1016.67
2022-07-27T06:00:00.920Z,1016.68
2022-07-27T06:01:00.820Z,1016.66
2022-07-27T06:02:07.965Z,1016.67
2022-07-27T06:03:01.885Z,1016.69
2022-07-27T06:04:00.934Z,1016.67
2022-07-27T06:05:00.608Z,1016.67
2022-07-27T06:06:00.316Z,1016.67
2022-07-27T06:07:09.636Z,1016.69
2022-07-27T06:08:01.078Z,1016.65
2022-07-27T06:09:00.973Z,1016.72
2022-07-27T06:10:00.620Z,1016.72
2022-07-27T06:11:00.325Z,1016.75
2022-07-27T06:12:12.629Z,1016.71
2022-07-27T06:13:01.050Z,1016.75
2022-07-27T06:14:00.893Z,1016.75
2022-07-27T06:15:00.660Z,1016.79
2022-07-27T06:16:00.654Z,1016.8
2022-07-27T06:17:00.580Z,1016.78
2022-07-27T06:18:00.303Z,1016.82
2022-07-27T06:19:00.609Z,1016.82
2022-07-27T06:20:00.540Z,1016.81
2022-07-27T06:21:00.304Z,1016.83
2022-07-27T06:21:59.982Z,1016.87
2022-07-27T06:22:59.787Z,1016.83
2022-07-27T06:24:02.876Z,1016.88
2022-07-27T06:25:02.522Z,1016.96
2022-07-27T06:26:00.723Z,1016.95
2022-07-27T06:27:00.363Z,1016.94
2022-07-27T06:28:00.013Z,1016.92
2022-07-27T06:28:59.726Z,1016.95
2022-07-27T06:30:02.727Z,1016.96
2022-07-27T06:31:02.815Z,1017.02
2022-07-27T06:32:03.173Z,1017
2022-07-27T06:33:01.815Z,1016.97
2022-07-27T06:34:00.676Z,1016.98
2022-07-27T06:35:01.457Z,1016.99
2022-07-27T06:36:01.416Z,1016.99
2022-07-27T06:37:00.603Z,1017.02
2022-07-27T06:38:00.302Z,1017
2022-07-27T06:38:59.986Z,1017.01
2022-07-27T06:39:59.728Z,1017
2022-07-27T06:41:01.635Z,1016.97
2022-07-27T06:42:00.721Z,1017.02
2022-07-27T06:43:00.420Z,1016.98
2022-07-27T06:44:00.143Z,1017.01
2022-07-27T06:44:59.949Z,1017.01
2022-07-27T06:46:00.948Z,1017.03
2022-07-27T06:47:00.842Z,1017.05
2022-07-27T06:48:00.623Z,1017.04
2022-07-27T06:49:00.498Z,1017.1
2022-07-27T06:50:00.278Z,1017.08
2022-07-27T06:50:59.985Z,1017.12
2022-07-27T06:51:59.678Z,1017.11
2022-07-27T06:53:01.444Z,1017.11
2022-07-27T06:54:00.609Z,1017.1
2022-07-27T06:55:00.459Z,1017.06
2022-07-27T06:56:00.211Z,1017.06
2022-07-27T06:56:59.847Z,1017.13
2022-07-27T06:58:01.558Z,1017.1
2022-07-27T06:59:02.185Z,1017.06
2022-07-27T07:00:02.135Z,1017.05
2022-07-27T07:01:01.030Z,1017.06
2022-07-27T07:02:00.992Z,1017.02
2022-07-27T07:03:01.394Z,1017.03
2022-07-27T07:04:01.144Z,1017.03
2022-07-27T07:05:00.889Z,1017
2022-07-27T07:06:00.576Z,1017.04
2022-07-27T07:07:04.000Z,1017.03
2022-07-27T07:08:01.536Z,1017.04
2022-07-27T07:09:02.172Z,1017.03
2022-07-27T07:10:02.378Z,1017.01
2022-07-27T07:11:00.930Z,1017
2022-07-27T07:12:00.591Z,1017
2022-07-27T07:13:00.321Z,1017.05
2022-07-27T07:14:00.013Z,1017.04
2022-07-27T07:14:59.726Z,1017.02
2022-07-27T07:16:00.241Z,1017.05
2022-07-27T07:17:00.070Z,1017.01
2022-07-27T07:18:00.134Z,1017.01
2022-07-27T07:18:59.847Z,1016.99
2022-07-27T07:20:03.329Z,1016.98
2022-07-27T07:21:02.495Z,1016.96
2022-07-27T07:22:00.784Z,1016.9
2022-07-27T07:23:00.498Z,1016.96
2022-07-27T07:24:00.212Z,1016.97
2022-07-27T07:25:02.879Z,1016.96
2022-07-27T07:26:01.231Z,1016.99
2022-07-27T07:27:01.033Z,1017.02
2022-07-27T07:28:00.712Z,1017.01
2022-07-27T07:29:00.366Z,1017.05
2022-07-27T07:30:00.038Z,1017.02
2022-07-27T07:31:01.229Z,1017.02
2022-07-27T07:32:01.034Z,1017.05
2022-07-27T07:33:00.783Z,1017.03
2022-07-27T07:34:00.470Z,1017.07
2022-07-27T07:35:00.343Z,1017.09
2022-07-27T07:36:12.393Z,1017.05
2022-07-27T07:37:00.632Z,1017.09
2022-07-27T07:38:00.282Z,1017.1
2022-07-27T07:39:00.320Z,1017.13
2022-07-27T07:40:13.081Z,1017.08
2022-07-27T07:41:01.230Z,1017.1
2022-07-27T07:42:00.971Z,1017.08
2022-07-27T07:43:00.638Z,1017.12
2022-07-27T07:44:00.316Z,1017.13
2022-07-27T07:45:00.021Z,1017.1
2022-07-27T07:45:59.816Z,1017.15
2022-07-27T07:47:02.660Z,1017.16
2022-07-27T07:48:01.585Z,1017.14
2022-07-27T07:49:02.240Z,1017.12
2022-07-27T07:50:02.616Z,1017.13
2022-07-27T07:51:00.984Z,1017.19
2022-07-27T07:52:00.690Z,1017.16
2022-07-27T07:53:00.657Z,1017.17
2022-07-27T07:54:00.401Z,1017.17
2022-07-27T07:55:00.082Z,1017.2
2022-07-27T07:55:59.823Z,1017.18
2022-07-27T07:57:02.262Z,1017.16
2022-07-27T07:58:04.087Z,1017.17
2022-07-27T07:59:00.953Z,1017.17
2022-07-27T08:00:00.630Z,1017.16
2022-07-27T08:01:00.588Z,1017.14
2022-07-27T08:02:00.679Z,1017.22
2022-07-27T08:03:07.617Z,1017.24
2022-07-27T08:04:02.134Z,1017.19
2022-07-27T08:05:01.401Z,1017.22
2022-07-27T08:06:00.673Z,1017.21
2022-07-27T08:07:02.932Z,1017.21
2022-07-27T08:08:12.368Z,1017.19
2022-07-27T08:09:00.918Z,1017.23
2022-07-27T08:10:00.791Z,1017.26
2022-07-27T08:11:00.797Z,1017.28
2022-07-27T08:12:00.499Z,1017.27
2022-07-27T08:13:12.383Z,1017.24
2022-07-27T08:14:02.999Z,1017.25
2022-07-27T08:15:01.153Z,1017.23
2022-07-27T08:16:00.796Z,1017.28
2022-07-27T08:17:00.543Z,1017.26
2022-07-27T08:18:08.773Z,1017.23
2022-07-27T08:19:02.309Z,1017.25
2022-07-27T08:20:02.232Z,1017.27
2022-07-27T08:21:01.094Z,1017.22
2022-07-27T08:22:01.787Z,1017.23
2022-07-27T08:23:00.811Z,1017.21
2022-07-27T08:24:02.809Z,1017.28
2022-07-27T08:25:02.319Z,1017.26
2022-07-27T08:26:05.613Z,1017.27
2022-07-27T08:27:00.616Z,1017.32
2022-07-27T08:28:00.330Z,1017.3
2022-07-27T08:29:09.006Z,1017.34
2022-07-27T08:30:02.705Z,1017.33
2022-07-27T08:31:00.948Z,1017.37
2022-07-27T08:32:02.470Z,1017.3
2022-07-27T08:33:02.308Z,1017.31
2022-07-27T08:34:00.693Z,1017.33
2022-07-27T08:35:00.357Z,1017.31
2022-07-27T08:35:59.999Z,1017.3
2022-07-27T08:36:59.761Z,1017.34
2022-07-27T08:38:02.328Z,1017.31
2022-07-27T08:39:03.100Z,1017.29
2022-07-27T08:41:00.961Z,1017.26
2022-07-27T08:42:00.711Z,1017.25
2022-07-27T08:43:00.404Z,1017.27
2022-07-27T08:44:00.045Z,1017.26
2022-07-27T08:45:00.658Z,1017.24
2022-07-27T08:46:00.734Z,1017.26
2022-07-27T08:47:00.603Z,1017.25
2022-07-27T08:48:00.357Z,1017.21
2022-07-27T08:49:00.186Z,1017.24
2022-07-27T08:50:00.000Z,1017.22
2022-07-27T08:51:00.113Z,1017.16
2022-07-27T08:51:59.756Z,1017.11
2022-07-27T08:53:01.535Z,1017.14
2022-07-27T08:54:00.619Z,1017.15
2022-07-27T08:55:00.298Z,1017.23
2022-07-27T08:56:01.308Z,1017.19
2022-07-27T08:57:01.002Z,1017.19
2022-07-27T08:58:03.062Z,1017.19
2022-07-27T08:59:00.718Z,1017.15
2022-07-27T09:00:00.426Z,1017.2
2022-07-27T09:01:00.248Z,1017.2
2022-07-27T09:02:03.095Z,1017.23
2022-07-27T09:03:01.153Z,1017.15
2022-07-27T09:04:01.175Z,1017.17
2022-07-27T09:05:00.810Z,1017.19
2022-07-27T09:06:00.437Z,1017.15
2022-07-27T09:07:00.119Z,1017.12
2022-07-27T09:07:59.847Z,1017.15
2022-07-27T09:09:02.458Z,1017.11
2022-07-27T09:10:00.894Z,1017.11
2022-07-27T09:11:00.637Z,1017.11
2022-07-27T09:12:00.406Z,1017.11
2022-07-27T09:13:00.134Z,1017.05
2022-07-27T09:13:59.784Z,1017.11
2022-07-27T09:15:02.772Z,1017.1
2022-07-27T09:16:20.097Z,1017.08
2022-07-27T09:17:46.696Z,1017.09
2022-07-27T09:18:01.638Z,1017.08
2022-07-27T09:19:00.970Z,1017.02
2022-07-27T09:20:00.651Z,1017.04
2022-07-27T09:21:00.444Z,1017.05
2022-07-27T09:22:00.253Z,1017.08
2022-07-27T09:22:59.943Z,1017.05
2022-07-27T09:23:59.648Z,1017.03
2022-07-27T09:25:02.030Z,1017.02
2022-07-27T09:26:04.792Z,1017.05
2022-07-27T09:27:00.795Z,1017.07
2022-07-27T09:28:00.493Z,1017.07
2022-07-27T09:29:00.202Z,1017.07
2022-07-27T09:29:59.912Z,1017.08
2022-07-27T09:31:00.360Z,1017.05
2022-07-27T09:32:00.109Z,1017.06
2022-07-27T09:32:59.750Z,1017.04
2022-07-27T09:34:01.683Z,1017
2022-07-27T09:35:01.366Z,1016.99
2022-07-27T09:36:01.055Z,1016.99
2022-07-27T09:37:00.706Z,1017
2022-07-27T09:38:01.251Z,1017.07
2022-07-27T09:39:03.828Z,1017.03
2022-07-27T09:40:01.735Z,1017.04
2022-07-27T09:41:01.014Z,1017.06
2022-07-27T09:42:01.233Z,1017.1
2022-07-27T09:43:23.818Z,1017.08
2022-07-27T09:45:02.373Z,1017.05
2022-07-27T09:46:00.799Z,1017.03
2022-07-27T09:47:01.001Z,1017.04
2022-07-27T09:48:01.065Z,1017.05
2022-07-27T09:49:07.652Z,1016.99
2022-07-27T09:50:01.156Z,1017.03
2022-07-27T09:51:02.602Z,1017.03
2022-07-27T09:52:01.909Z,1017.06
2022-07-27T09:53:14.638Z,1017.05
2022-07-27T09:54:08.728Z,1017.09
2022-07-27T09:55:02.331Z,1017.03
2022-07-27T09:56:02.235Z,1017.03
2022-07-27T09:57:01.303Z,1017
2022-07-27T09:58:02.345Z,1016.95
2022-07-27T09:59:10.217Z,1016.94
2022-07-27T10:00:01.393Z,1016.96
2022-07-27T10:01:01.149Z,1016.96
2022-07-27T10:02:00.814Z,1016.99
2022-07-27T10:03:00.959Z,1016.94
2022-07-27T10:04:10.987Z,1016.95
2022-07-27T10:05:01.074Z,1016.95
2022-07-27T10:06:00.962Z,1017.01
2022-07-27T10:07:03.962Z,1017
2022-07-27T10:08:00.760Z,1016.98
2022-07-27T10:09:10.847Z,1016.94
2022-07-27T10:10:00.881Z,1016.9
2022-07-27T10:11:00.676Z,1016.89
2022-07-27T10:12:00.800Z,1016.99
2022-07-27T10:13:00.531Z,1016.93
2022-07-27T10:14:11.668Z,1016.99
2022-07-27T10:15:01.252Z,1016.86
2022-07-27T10:16:02.665Z,1016.98
2022-07-27T10:17:00.859Z,1016.96
2022-07-27T10:18:01.763Z,1016.94
2022-07-27T10:19:11.754Z,1016.94
2022-07-27T10:20:00.846Z,1016.9
2022-07-27T10:21:00.653Z,1016.9
2022-07-27T10:22:00.479Z,1016.95
2022-07-27T10:23:00.191Z,1016.95
2022-07-27T10:24:15.669Z,1016.9
2022-07-27T10:25:00.875Z,1016.99
2022-07-27T10:26:00.688Z,1016.98
2022-07-27T10:27:00.447Z,1017.02
2022-07-27T10:28:00.817Z,1016.97
2022-07-27T10:29:00.484Z,1016.94
2022-07-27T10:30:00.247Z,1016.98
2022-07-27T10:31:00.171Z,1016.98
2022-07-27T10:32:00.171Z,1016.98
2022-07-27T10:33:01.010Z,1016.94
2022-07-27T10:34:00.737Z,1016.94
2022-07-27T10:35:00.446Z,1016.89
2022-07-27T10:36:00.253Z,1016.92
2022-07-27T10:37:00.026Z,1016.91
2022-07-27T10:37:59.849Z,1016.88
2022-07-27T10:39:00.136Z,1016.85
2022-07-27T10:39:59.855Z,1016.87
2022-07-27T10:41:01.838Z,1016.88
2022-07-27T10:42:00.986Z,1016.96
2022-07-27T10:43:00.695Z,1016.95
2022-07-27T10:44:00.354Z,1016.91
2022-07-27T10:45:00.162Z,1016.89
2022-07-27T10:46:02.690Z,1016.91
2022-07-27T10:47:02.163Z,1016.85
2022-07-27T10:48:00.597Z,1016.87
2022-07-27T10:49:00.311Z,1016.81
2022-07-27T10:50:00.157Z,1016.86
2022-07-27T10:50:59.997Z,1016.88
2022-07-27T10:52:00.065Z,1016.87
2022-07-27T10:52:59.837Z,1016.85
2022-07-27T10:54:17.811Z,1016.82
2022-07-27T10:55:02.143Z,1016.83
2022-07-27T10:56:00.669Z,1016.8
2022-07-27T10:57:00.602Z,1016.84
2022-07-27T10:58:00.495Z,1016.82
2022-07-27T10:59:00.188Z,1016.84
2022-07-27T11:00:09.323Z,1016.8
2022-07-27T11:01:01.209Z,1016.86
2022-07-27T11:02:01.256Z,1016.85
2022-07-27T11:03:00.849Z,1016.83
2022-07-27T11:04:01.779Z,1016.8
2022-07-27T11:05:01.563Z,1016.79
2022-07-27T11:06:14.521Z,1016.78
2022-07-27T11:09:53.180Z,1016.79
2022-07-27T11:10:05.168Z,1016.78
2022-07-27T11:11:00.268Z,1016.76
2022-07-27T11:12:00.010Z,1016.72
2022-07-27T11:13:05.321Z,1016.73
2022-07-27T11:14:00.992Z,1016.74
2022-07-27T11:15:00.730Z,1016.77
2022-07-27T11:16:22.837Z,1016.77
2022-07-27T11:17:24.530Z,1016.82
2022-07-27T11:18:04.966Z,1016.8
2022-07-27T11:19:01.589Z,1016.79
2022-07-27T11:20:01.119Z,1016.8
2022-07-27T11:21:04.675Z,1016.83
2022-07-27T11:22:04.444Z,1016.77
2022-07-27T11:23:49.488Z,1016.79
2022-07-27T11:24:02.405Z,1016.8
2022-07-27T11:25:00.979Z,1016.81
2022-07-27T11:26:00.611Z,1016.75
2022-07-27T11:27:00.265Z,1016.8
2022-07-27T11:27:59.936Z,1016.77
2022-07-27T11:28:59.600Z,1016.81
2022-07-27T11:30:02.253Z,1016.77
2022-07-27T11:31:03.599Z,1016.78
2022-07-27T11:32:00.990Z,1016.83
2022-07-27T11:33:00.898Z,1016.73
2022-07-27T11:34:00.578Z,1016.83
2022-07-27T11:35:00.369Z,1016.8
2022-07-27T11:35:59.986Z,1016.83
2022-07-27T11:37:00.710Z,1016.75
2022-07-27T11:38:00.334Z,1016.79
2022-07-27T11:39:00.052Z,1016.78
2022-07-27T11:40:03.986Z,1016.73
2022-07-27T11:41:16.864Z,1016.79
2022-07-27T11:42:11.761Z,1016.8
2022-07-27T11:43:00.921Z,1016.78
2022-07-27T11:44:01.328Z,1016.73
2022-07-27T11:45:00.820Z,1016.76
2022-07-27T11:46:00.551Z,1016.84
2022-07-27T11:47:02.187Z,1016.82
2022-07-27T11:48:02.012Z,1016.84
2022-07-27T11:49:09.291Z,1016.79
2022-07-27T11:50:04.377Z,1016.84
2022-07-27T11:51:01.374Z,1016.85
2022-07-27T11:52:01.090Z,1016.81
2022-07-27T11:53:02.141Z,1016.85
2022-07-27T11:54:01.043Z,1016.87
2022-07-27T11:55:03.668Z,1016.85
2022-07-27T11:56:00.703Z,1016.78
2022-07-27T11:57:00.474Z,1016.77
2022-07-27T11:58:00.266Z,1016.77
2022-07-27T11:59:01.548Z,1016.74
2022-07-27T12:00:03.736Z,1016.75
2022-07-27T12:01:01.758Z,1016.76
2022-07-27T12:02:01.738Z,1016.77
2022-07-27T12:03:00.725Z,1016.75
2022-07-27T12:04:00.947Z,1016.77
2022-07-27T12:05:05.323Z,1016.78
2022-07-27T12:06:00.934Z,1016.72
2022-07-27T12:07:00.658Z,1016.71
2022-07-27T12:08:00.330Z,1016.73
2022-07-27T12:09:00.021Z,1016.73
2022-07-27T12:10:06.642Z,1016.72
2022-07-27T12:11:00.855Z,1016.78
2022-07-27T12:12:01.184Z,1016.69
2022-07-27T12:13:00.829Z,1016.68